Time;durP1;ratioP1;P1;durP2;ratioP2;P2;SDS_P1;SDS_P2;PMS_P1;PMS_P2;Temp;Humidity;BMP_temperature;BMP_pressure;BME280_temperature;BME280_humidity;BME280_pressure;Samples;Min_cycle;Max_cycle;Signal;HPM_P1;HPM_P2
2024/01/30 00:02:25;;;;;;;23.60;11.70;;;;;;;1.05;81.28;101484.34;216571;1260;140111;-67
2024/01/30 00:07:30;;;;;;;19.90;9.20;;;;;;;1.05;81.35;101479.87;216312;1259;140116;-71
2024/01/30 00:12:34;;;;;;;16.60;10.40;;;;;;;1.02;80.92;101479.16;216730;1260;140188;-69
2024/01/30 00:17:39;;;;;;;13.40;8.60;;;;;;;0.97;80.99;101474.14;217477;1259;141126;-68
2024/01/30 00:22:44;;;;;;;24.00;11.10;;;;;;;0.95;80.83;101468.90;218300;1259;140894;-68
2024/01/30 00:27:48;;;;;;;22.60;11.20;;;;;;;0.94;81.01;101471.65;218234;1259;141173;-67
2024/01/30 00:32:53;;;;;;;17.50;9.50;;;;;;;0.93;80.81;101468.55;217052;1259;140319;-69
2024/01/30 00:37:57;;;;;;;27.10;10.20;;;;;;;0.92;80.79;101469.49;217807;1259;140452;-67
2024/01/30 00:43:01;;;;;;;20.30;11.30;;;;;;;0.90;80.94;101470.73;218415;1259;141975;-69
2024/01/30 00:48:06;;;;;;;21.40;10.70;;;;;;;0.89;80.86;101469.08;217072;1259;140571;-70
2024/01/30 00:53:11;;;;;;;16.70;9.40;;;;;;;0.87;80.86;101465.95;218566;1259;141028;-71
2024/01/30 00:58:15;;;;;;;18.80;10.00;;;;;;;0.88;80.97;101466.75;217528;1259;144036;-67
2024/01/30 01:03:21;;;;;;;14.80;8.60;;;;;;;0.87;80.90;101464.04;217617;1259;141779;-68
2024/01/30 01:08:26;;;;;;;17.00;10.80;;;;;;;0.86;81.10;101464.80;216585;1259;142889;-69
2024/01/30 01:13:32;;;;;;;16.60;9.00;;;;;;;0.86;81.12;101470.72;219559;1259;141735;-68
2024/01/30 01:18:36;;;;;;;16.10;10.00;;;;;;;0.86;81.16;101463.27;218757;1259;140660;-67
2024/01/30 01:23:41;;;;;;;11.80;8.30;;;;;;;0.86;80.80;101458.83;216668;1259;140479;-68
2024/01/30 01:28:45;;;;;;;13.80;8.60;;;;;;;0.85;81.13;101453.02;216554;1263;142020;-67
2024/01/30 01:33:49;;;;;;;19.40;10.10;;;;;;;0.81;80.79;101452.61;216700;1260;141012;-67
2024/01/30 01:38:55;;;;;;;13.50;7.70;;;;;;;0.77;81.10;101454.36;216541;1263;140275;-67
2024/01/30 01:44:00;;;;;;;16.40;9.10;;;;;;;0.75;80.99;101444.92;216558;1259;139390;-68
2024/01/30 01:49:05;;;;;;;18.30;10.00;;;;;;;0.72;81.16;101441.71;216612;1259;139926;-68
2024/01/30 01:54:11;;;;;;;14.30;8.20;;;;;;;0.68;81.06;101447.98;216806;1259;141006;-67
2024/01/30 01:59:15;;;;;;;19.10;7.90;;;;;;;0.64;80.97;101449.84;216455;1262;139854;-67
2024/01/30 02:04:20;;;;;;;17.60;8.60;;;;;;;0.61;81.27;101454.80;218751;1259;145834;-67
2024/01/30 02:09:31;;;;;;;11.70;6.80;;;;;;;0.60;81.08;101454.23;216873;1263;140584;-68
2024/01/30 02:14:45;;;;;;;8.90;5.70;;;;;;;0.59;81.47;101447.70;218130;1259;141788;-69
2024/01/30 02:19:49;;;;;;;13.70;7.30;;;;;;;0.57;81.28;101443.11;216694;1263;139927;-68
2024/01/30 02:24:53;;;;;;;14.10;5.90;;;;;;;0.54;81.23;101439.69;217317;1263;140507;-67
2024/01/30 02:29:57;;;;;;;18.60;9.00;;;;;;;0.51;81.59;101446.65;217960;1259;139790;-67
2024/01/30 02:35:02;;;;;;;12.60;6.60;;;;;;;0.49;81.27;101442.58;217410;1259;140738;-67
2024/01/30 02:40:07;;;;;;;12.70;7.00;;;;;;;0.47;81.59;101440.13;218528;1259;139965;-67
2024/01/30 02:45:12;;;;;;;10.90;6.20;;;;;;;0.47;81.38;101444.70;216703;1259;140394;-67
2024/01/30 02:50:16;;;;;;;14.10;7.50;;;;;;;0.45;81.52;101443.48;218200;1257;139651;-73
2024/01/30 02:55:20;;;;;;;14.50;8.00;;;;;;;0.42;81.92;101441.80;216784;1259;140261;-66
2024/01/30 03:00:25;;;;;;;15.00;6.30;;;;;;;0.39;81.98;101440.92;219008;1262;140559;-65
2024/01/30 03:05:29;;;;;;;17.40;8.30;;;;;;;0.38;81.51;101436.88;217571;1259;141517;-67
2024/01/30 03:10:34;;;;;;;12.20;6.90;;;;;;;0.36;81.68;101438.20;216689;1260;141082;-66
2024/01/30 03:15:38;;;;;;;12.10;7.60;;;;;;;0.32;81.79;101441.51;217713;1259;140766;-68
2024/01/30 03:20:43;;;;;;;22.30;9.40;;;;;;;0.28;81.83;101436.59;217279;1259;139913;-67
2024/01/30 03:25:47;;;;;;;11.20;6.60;;;;;;;0.28;81.80;101444.67;217526;1259;140023;-67
2024/01/30 03:30:57;;;;;;;11.80;6.30;;;;;;;0.28;81.83;101441.86;218673;1260;141985;-67
2024/01/30 03:36:05;;;;;;;16.60;7.30;;;;;;;0.28;81.70;101437.36;217836;1259;141388;-68
2024/01/30 03:41:10;;;;;;;11.40;6.60;;;;;;;0.28;82.23;101434.33;217726;1259;140921;-68
2024/01/30 03:46:15;;;;;;;12.70;7.30;;;;;;;0.27;82.11;101431.66;216944;1262;141326;-67
2024/01/30 03:51:20;;;;;;;14.30;5.90;;;;;;;0.27;82.28;101432.85;216442;1260;140836;-68
2024/01/30 03:56:25;;;;;;;11.10;6.00;;;;;;;0.25;82.39;101428.28;217658;1259;142765;-67
2024/01/30 04:01:30;;;;;;;17.00;8.70;;;;;;;0.23;82.33;101421.48;218112;1259;140084;-67
2024/01/30 04:06:35;;;;;;;16.10;6.40;;;;;;;0.23;82.52;101423.06;216516;1259;141261;-67
2024/01/30 04:11:40;;;;;;;10.20;6.60;;;;;;;0.24;82.47;101424.85;217408;1260;140488;-67
2024/01/30 04:16:45;;;;;;;6.70;4.50;;;;;;;0.24;82.78;101425.20;217414;1260;142775;-67
2024/01/30 04:21:50;;;;;;;7.00;5.30;;;;;;;0.23;82.41;101422.14;216739;1259;140571;-67
2024/01/30 04:26:54;;;;;;;9.70;5.20;;;;;;;0.21;82.86;101416.27;217331;1259;139840;-67
2024/01/30 04:31:58;;;;;;;11.00;5.80;;;;;;;0.18;82.99;101422.58;219407;1259;140826;-68
2024/01/30 04:37:03;;;;;;;13.30;6.70;;;;;;;0.19;83.15;101429.55;219622;1259;141574;-68
2024/01/30 04:42:08;;;;;;;10.70;5.70;;;;;;;0.20;82.84;101435.89;218483;1258;141509;-68
2024/01/30 04:47:12;;;;;;;6.70;5.70;;;;;;;0.20;82.77;101430.33;218334;1263;139882;-67
2024/01/30 04:52:17;;;;;;;10.90;6.30;;;;;;;0.18;82.88;101421.02;217906;1259;139944;-67
2024/01/30 04:57:21;;;;;;;15.30;6.30;;;;;;;0.18;83.07;101428.05;217683;1259;209151;-67
2024/01/30 05:02:25;;;;;;;10.00;6.00;;;;;;;0.17;83.17;101431.55;217183;1259;139954;-68
2024/01/30 05:07:30;;;;;;;10.80;5.30;;;;;;;0.16;83.09;101433.39;216725;1259;139843;-67
2024/01/30 05:12:36;;;;;;;9.10;5.30;;;;;;;0.13;83.04;101437.67;216544;1259;140539;-67
2024/01/30 05:17:43;;;;;;;9.50;5.70;;;;;;;0.11;83.62;101432.07;217819;1259;140129;-67
2024/01/30 05:22:48;;;;;;;11.00;6.20;;;;;;;0.10;83.16;101428.52;216624;1260;140512;-68
2024/01/30 05:27:52;;;;;;;12.70;5.70;;;;;;;0.08;83.47;101429.51;217603;1259;140153;-66
2024/01/30 05:32:57;;;;;;;13.20;7.00;;;;;;;0.08;83.65;101430.77;219145;1259;140364;-68
2024/01/30 05:38:02;;;;;;;11.20;6.50;;;;;;;0.07;83.46;101431.73;216655;1259;141354;-67
2024/01/30 05:43:07;;;;;;;8.00;5.90;;;;;;;0.07;83.19;101434.71;217541;1262;141861;-67
2024/01/30 05:48:12;;;;;;;9.70;6.60;;;;;;;0.05;83.54;101432.40;216535;1259;140133;-67
2024/01/30 05:53:17;;;;;;;10.80;7.10;;;;;;;0.03;83.56;101431.35;216514;1264;140144;-67
2024/01/30 05:58:21;;;;;;;10.20;8.50;;;;;;;0.00;83.38;101431.54;216599;1260;140435;-67
2024/01/30 06:03:26;;;;;;;10.40;7.80;;;;;;;-0.01;83.39;101433.10;218632;1260;142205;-67
2024/01/30 06:08:30;;;;;;;20.40;9.30;;;;;;;-0.01;83.75;101437.45;217950;1260;140183;-67
2024/01/30 06:13:35;;;;;;;10.70;7.50;;;;;;;0.00;83.89;101437.54;217970;1263;143389;-67
2024/01/30 06:18:40;;;;;;;11.80;7.00;;;;;;;0.01;83.97;101443.88;218563;1259;141414;-67
2024/01/30 06:23:45;;;;;;;15.20;8.20;;;;;;;0.03;83.83;101449.14;216322;1260;140548;-67
2024/01/30 06:28:49;;;;;;;14.00;8.10;;;;;;;0.06;83.88;101450.49;216764;1259;140408;-68
2024/01/30 06:33:54;;;;;;;11.80;7.10;;;;;;;0.09;84.30;101446.71;217513;1259;139892;-68
2024/01/30 06:38:58;;;;;;;16.00;8.20;;;;;;;0.13;84.07;101448.35;217721;1263;139925;-68
2024/01/30 06:44:06;;;;;;;12.60;8.00;;;;;;;0.21;84.04;101446.67;218485;1259;140278;-67
2024/01/30 06:49:10;;;;;;;13.30;7.20;;;;;;;0.30;84.38;101449.35;216695;1260;140145;-68
2024/01/30 06:54:15;;;;;;;14.80;7.90;;;;;;;0.52;84.10;101451.60;216933;1259;140229;-67
2024/01/30 06:59:21;;;;;;;15.90;6.70;;;;;;;0.84;84.11;101450.60;216683;1259;140151;-67
2024/01/30 07:04:26;;;;;;;8.80;5.90;;;;;;;1.48;84.35;101451.56;217064;1259;140528;-67
2024/01/30 07:09:30;;;;;;;12.90;8.70;;;;;;;2.14;83.97;101454.60;217882;1259;139871;-67
2024/01/30 07:14:35;;;;;;;14.10;7.50;;;;;;;2.70;83.13;101456.83;217193;1259;140835;-68
2024/01/30 07:19:40;;;;;;;15.90;8.50;;;;;;;3.29;82.51;101452.21;217917;1259;139879;-67
2024/01/30 07:24:47;;;;;;;13.70;8.50;;;;;;;3.78;82.17;101451.63;216586;1259;141999;-67
2024/01/30 07:29:53;;;;;;;14.10;9.70;;;;;;;4.22;81.51;101454.04;216414;1259;140271;-69
2024/01/30 07:34:57;;;;;;;14.20;7.00;;;;;;;4.38;80.72;101455.73;217974;1257;140620;-68
2024/01/30 07:40:12;;;;;;;14.90;7.20;;;;;;;4.37;79.69;101450.70;217054;1262;140420;-68
2024/01/30 07:45:16;;;;;;;12.00;6.80;;;;;;;4.22;79.18;101450.95;216770;1262;140154;-67
2024/01/30 07:50:20;;;;;;;17.20;10.10;;;;;;;4.06;79.06;101448.68;217304;1262;141086;-68
2024/01/30 07:55:28;;;;;;;11.80;7.00;;;;;;;3.79;78.64;101447.26;216878;1262;140688;-69
2024/01/30 08:00:32;;;;;;;16.60;8.60;;;;;;;3.51;78.49;101447.05;218114;1260;140783;-68
2024/01/30 08:05:39;;;;;;;12.80;6.70;;;;;;;3.39;78.96;101451.04;216791;1259;140776;-68
2024/01/30 08:10:43;;;;;;;16.60;8.70;;;;;;;3.31;79.01;101451.27;217095;1259;140024;-68
2024/01/30 08:15:47;;;;;;;11.40;8.70;;;;;;;3.20;78.90;101454.20;217767;1262;140414;-67
2024/01/30 08:20:51;;;;;;;13.10;8.40;;;;;;;3.18;79.03;101452.36;217110;1260;141106;-67
2024/01/30 08:25:55;;;;;;;16.70;7.20;;;;;;;3.19;79.16;101449.47;217934;1258;140009;-68
2024/01/30 08:30:59;;;;;;;15.70;8.10;;;;;;;3.21;79.36;101447.81;219514;1259;141037;-70
2024/01/30 08:36:04;;;;;;;16.00;8.50;;;;;;;3.25;79.31;101444.41;219286;1259;141437;-70
2024/01/30 08:41:08;;;;;;;14.30;7.90;;;;;;;3.36;79.32;101438.27;218540;1259;141229;-70
2024/01/30 08:46:12;;;;;;;9.30;7.00;;;;;;;3.53;79.24;101436.98;216340;1260;140082;-71
2024/01/30 08:51:17;;;;;;;10.60;7.00;;;;;;;3.65;79.19;101433.23;216726;1263;139657;-71
2024/01/30 08:56:20;;;;;;;14.10;8.80;;;;;;;3.75;79.19;101436.42;216500;1259;140012;-70
2024/01/30 09:01:25;;;;;;;8.80;7.20;;;;;;;3.89;79.01;101433.73;216388;1259;141250;-70
2024/01/30 09:06:29;;;;;;;10.00;6.50;;;;;;;3.97;78.98;101437.25;216518;1259;139640;-69
2024/01/30 09:11:35;;;;;;;14.30;6.50;;;;;;;4.05;78.75;101439.30;216616;1260;140937;-68
2024/01/30 09:16:39;;;;;;;11.80;6.30;;;;;;;4.13;78.63;101436.08;217286;1260;140074;-68
2024/01/30 09:21:45;;;;;;;11.20;7.70;;;;;;;4.23;78.60;101430.48;216640;1262;140474;-68
2024/01/30 09:26:50;;;;;;;15.60;7.10;;;;;;;4.35;78.57;101426.66;216915;1259;140253;-68
2024/01/30 09:31:54;;;;;;;11.20;6.40;;;;;;;4.49;78.34;101430.02;217408;1260;140232;-67
2024/01/30 09:37:00;;;;;;;14.00;7.20;;;;;;;4.63;78.12;101422.39;217404;1260;140035;-68
2024/01/30 09:42:16;;;;;;;8.20;6.00;;;;;;;4.80;77.94;101425.98;216924;1263;140262;-67
2024/01/30 09:47:20;;;;;;;11.80;7.40;;;;;;;4.99;77.69;101426.33;217593;1262;140191;-69
2024/01/30 09:52:25;;;;;;;10.70;5.00;;;;;;;5.18;77.20;101421.50;216749;1260;139947;-68
2024/01/30 09:57:30;;;;;;;13.10;6.60;;;;;;;5.31;77.02;101412.20;217640;1263;140039;-68
2024/01/30 10:02:36;;;;;;;13.80;7.50;;;;;;;5.48;77.09;101406.61;216969;1262;139969;-70
2024/01/30 10:07:52;;;;;;;12.50;6.40;;;;;;;5.67;76.73;101398.91;216866;1260;141146;-68
2024/01/30 10:12:57;;;;;;;10.10;8.20;;;;;;;5.88;76.62;101396.45;217295;1263;140724;-67
2024/01/30 10:18:06;;;;;;;13.80;6.50;;;;;;;6.08;76.14;101391.49;219495;1259;140618;-67
2024/01/30 10:23:11;;;;;;;10.30;5.20;;;;;;;6.25;75.76;101386.16;219651;1259;141798;-68
2024/01/30 10:28:16;;;;;;;10.90;6.50;;;;;;;6.45;75.60;101380.09;219465;1259;141030;-69
2024/01/30 10:33:20;;;;;;;12.40;5.30;;;;;;;6.67;75.22;101375.73;217673;1260;140195;-69
2024/01/30 10:38:28;;;;;;;16.50;7.20;;;;;;;6.91;74.82;101374.25;219489;1264;140675;-68
2024/01/30 10:43:36;;;;;;;8.60;6.20;;;;;;;7.19;74.69;101365.32;217081;1263;140710;-68
2024/01/30 10:48:44;;;;;;;13.60;6.20;;;;;;;7.44;74.44;101371.29;217885;1263;141319;-69
2024/01/30 10:53:49;;;;;;;6.80;4.30;;;;;;;7.52;73.58;101365.02;218869;1263;140654;-68
2024/01/30 10:58:55;;;;;;;18.10;6.80;;;;;;;7.40;72.79;101361.30;216858;1261;142661;-68
2024/01/30 11:04:00;;;;;;;8.80;6.00;;;;;;;7.37;72.75;101355.95;218058;1262;140198;-68
2024/01/30 11:09:10;;;;;;;7.40;6.10;;;;;;;7.51;72.63;101347.05;217928;1260;140818;-69
2024/01/30 11:14:15;;;;;;;11.40;6.30;;;;;;;7.59;72.01;101335.89;218410;1263;140035;-68
2024/01/30 11:19:26;;;;;;;11.90;6.50;;;;;;;7.70;71.96;101331.58;216481;1263;151468;-69
2024/01/30 11:24:43;;;;;;;10.20;5.10;;;;;;;7.85;71.69;101323.72;217651;1260;140897;-69
2024/01/30 11:29:51;;;;;;;9.40;7.20;;;;;;;7.94;71.04;101316.67;217561;1260;141468;-69
2024/01/30 11:34:56;;;;;;;11.10;6.50;;;;;;;7.98;70.84;101308.15;217596;1263;140231;-69
2024/01/30 11:40:04;;;;;;;11.80;6.70;;;;;;;8.06;70.51;101303.72;216481;1264;139526;-69
2024/01/30 11:45:08;;;;;;;17.90;8.90;;;;;;;8.14;70.28;101298.53;216609;1263;139872;-68
2024/01/30 11:50:13;;;;;;;9.40;5.70;;;;;;;8.24;70.34;101293.66;216752;1263;140743;-69
2024/01/30 11:55:18;;;;;;;12.80;6.10;;;;;;;8.34;69.96;101287.82;216688;1262;139673;-68
2024/01/30 12:00:24;;;;;;;11.10;6.30;;;;;;;8.38;69.56;101284.70;217759;1262;140713;-68
2024/01/30 12:05:29;;;;;;;9.90;6.00;;;;;;;8.39;69.14;101276.55;217339;1262;141341;-69
2024/01/30 12:10:34;;;;;;;14.20;6.70;;;;;;;8.51;69.31;101281.09;217820;1263;139709;-69
2024/01/30 12:15:38;;;;;;;9.40;5.90;;;;;;;8.59;68.75;101276.73;218530;1259;139519;-69
2024/01/30 12:20:42;;;;;;;9.70;6.10;;;;;;;8.56;68.60;101272.61;217045;1261;139927;-70
2024/01/30 12:25:47;;;;;;;7.00;4.80;;;;;;;8.58;68.37;101268.36;216482;1262;139766;-69
2024/01/30 12:31:12;;;;;;;8.70;5.80;;;;;;;8.61;68.27;101269.11;216658;1261;139094;-69
2024/01/30 12:36:18;;;;;;;6.00;4.50;;;;;;;8.58;67.67;101269.31;216595;1262;139769;-68
2024/01/30 12:41:28;;;;;;;11.00;6.10;;;;;;;8.59;67.78;101267.04;216651;1260;140951;-69
2024/01/30 12:46:35;;;;;;;11.00;5.70;;;;;;;8.61;67.30;101263.26;217571;1260;141902;-69
2024/01/30 12:51:40;;;;;;;7.70;5.20;;;;;;;8.58;66.88;101262.27;216507;1259;141531;-69
2024/01/30 12:56:44;;;;;;;6.10;5.00;;;;;;;8.59;66.99;101260.20;216575;1264;139279;-69
2024/01/30 13:01:48;;;;;;;6.80;6.10;;;;;;;8.62;66.62;101259.30;217052;1260;139166;-70
2024/01/30 13:06:52;;;;;;;12.20;6.10;;;;;;;8.61;66.56;101257.36;216662;1260;139594;-68
2024/01/30 13:11:56;;;;;;;7.40;5.10;;;;;;;8.58;66.57;101258.17;218908;1262;140360;-69
2024/01/30 13:17:00;;;;;;;10.20;5.90;;;;;;;8.58;66.48;101251.73;217024;1261;139580;-68
2024/01/30 13:22:04;;;;;;;11.00;5.90;;;;;;;8.61;66.29;101239.59;216406;1263;140426;-68
2024/01/30 13:27:08;;;;;;;5.60;4.10;;;;;;;8.62;66.30;101238.04;216358;1260;140453;-69
2024/01/30 13:32:13;;;;;;;7.60;4.20;;;;;;;8.60;65.89;101236.17;216499;1261;139636;-69
2024/01/30 13:37:17;;;;;;;9.00;5.60;;;;;;;8.54;65.75;101229.65;216565;1260;139416;-69
2024/01/30 13:42:21;;;;;;;6.70;5.10;;;;;;;8.48;65.62;101229.75;216452;1260;140379;-69
2024/01/30 13:47:26;;;;;;;7.80;5.30;;;;;;;8.39;65.43;101229.95;216503;1260;140030;-69
2024/01/30 13:52:30;;;;;;;11.40;6.30;;;;;;;8.38;65.44;101233.52;216855;1261;140864;-69
2024/01/30 13:57:47;;;;;;;9.70;5.70;;;;;;;8.38;65.39;101231.29;216581;1260;139491;-69
2024/01/30 14:02:57;;;;;;;7.60;6.00;;;;;;;8.37;65.49;101226.35;216535;1261;141456;-69
2024/01/30 14:08:03;;;;;;;8.00;6.00;;;;;;;8.30;65.36;101226.96;216629;1257;140393;-69
2024/01/30 14:13:10;;;;;;;8.50;5.40;;;;;;;8.26;65.42;101220.20;219468;1260;140012;-70
2024/01/30 14:18:14;;;;;;;11.30;6.10;;;;;;;8.25;65.32;101218.24;219501;1257;141440;-69
2024/01/30 14:23:18;;;;;;;12.10;5.40;;;;;;;8.20;65.28;101214.41;219668;1259;139783;-70
2024/01/30 14:28:22;;;;;;;9.50;6.40;;;;;;;8.12;65.21;101210.56;219519;1259;140824;-69
2024/01/30 14:33:26;;;;;;;9.30;5.70;;;;;;;8.01;65.44;101212.54;219570;1259;139874;-69
2024/01/30 14:38:30;;;;;;;10.50;6.80;;;;;;;7.91;65.18;101216.48;219391;1260;140246;-69
2024/01/30 14:43:35;;;;;;;14.00;7.20;;;;;;;7.78;65.20;101215.73;217388;1260;140143;-70
2024/01/30 14:48:39;;;;;;;9.50;6.60;;;;;;;7.58;65.32;101214.72;216677;1261;140836;-73
2024/01/30 14:53:44;;;;;;;9.40;6.30;;;;;;;7.42;65.21;101212.81;217502;1259;140071;-71
2024/01/30 14:58:48;;;;;;;9.70;6.60;;;;;;;7.23;65.08;101208.65;216575;1258;139375;-71
2024/01/30 15:03:52;;;;;;;10.00;7.40;;;;;;;7.06;65.52;101206.34;216825;1262;140242;-71
2024/01/30 15:08:58;;;;;;;11.60;6.30;;;;;;;6.89;65.60;101209.97;216431;1259;140739;-69
2024/01/30 15:14:02;;;;;;;11.70;7.00;;;;;;;6.70;65.81;101215.31;216528;1260;139909;-68
2024/01/30 15:19:06;;;;;;;11.70;7.20;;;;;;;6.49;66.07;101220.63;216626;1258;138992;-69
2024/01/30 15:24:14;;;;;;;13.60;9.10;;;;;;;6.27;66.23;101219.05;216908;1259;139601;-69
2024/01/30 15:29:21;;;;;;;14.80;8.70;;;;;;;6.05;66.34;101217.30;216783;1260;140357;-70
2024/01/30 15:34:26;;;;;;;10.40;7.50;;;;;;;5.86;66.31;101215.66;217204;1260;141972;-73
2024/01/30 15:39:29;;;;;;;11.20;6.70;;;;;;;5.65;66.46;101220.90;217043;1263;141222;-68
2024/01/30 15:44:35;;;;;;;14.40;8.40;;;;;;;5.48;66.60;101222.52;216618;1262;141585;-68
2024/01/30 15:49:39;;;;;;;13.60;8.20;;;;;;;5.31;67.20;101220.39;216641;1259;140679;-70
2024/01/30 15:54:44;;;;;;;11.80;7.30;;;;;;;5.17;67.37;101216.13;217592;1258;140838;-70
2024/01/30 15:59:47;;;;;;;15.50;9.10;;;;;;;5.02;67.47;101212.23;217117;1257;141076;-75
2024/01/30 16:04:51;;;;;;;15.50;7.80;;;;;;;4.90;67.50;101211.41;216950;1257;140009;-73
2024/01/30 16:09:55;;;;;;;15.60;8.00;;;;;;;4.80;67.65;101211.41;217337;1257;140978;-73
2024/01/30 16:15:01;;;;;;;11.00;8.10;;;;;;;4.74;67.76;101213.27;218469;1257;140002;-72
2024/01/30 16:20:06;;;;;;;9.00;6.70;;;;;;;4.65;67.76;101212.60;216887;1258;139943;-75
2024/01/30 16:25:11;;;;;;;13.30;7.40;;;;;;;4.57;67.95;101210.05;217350;1261;140209;-70
2024/01/30 16:30:17;;;;;;;14.10;8.00;;;;;;;4.48;68.08;101213.08;216911;1259;139867;-71
2024/01/30 16:35:21;;;;;;;15.00;9.90;;;;;;;4.39;68.10;101213.13;217027;1261;140472;-71
2024/01/30 16:40:45;;;;;;;13.70;7.10;;;;;;;4.31;68.36;101216.73;216880;1260;140845;-74
2024/01/30 16:45:49;;;;;;;18.00;9.10;;;;;;;4.24;68.32;101213.64;216647;1258;140653;-73
2024/01/30 16:50:52;;;;;;;18.30;9.20;;;;;;;4.16;68.52;101211.41;216968;1257;140394;-70
2024/01/30 16:55:56;;;;;;;14.30;8.80;;;;;;;4.09;68.65;101206.49;216368;1259;286014;-70
2024/01/30 17:00:59;;;;;;;17.00;8.90;;;;;;;4.02;68.71;101204.20;216233;1263;140618;-69
2024/01/30 17:06:05;;;;;;;13.60;8.80;;;;;;;3.96;68.69;101193.39;216513;1261;140345;-71
2024/01/30 17:11:08;;;;;;;13.80;8.50;;;;;;;3.92;68.62;101190.00;216389;1263;139975;-72
2024/01/30 17:16:12;;;;;;;18.10;9.70;;;;;;;3.90;68.92;101194.91;216912;1259;139956;-70
2024/01/30 17:21:20;;;;;;;14.30;9.60;;;;;;;3.88;69.08;101197.41;216002;1263;140194;-70
2024/01/30 17:26:24;;;;;;;15.50;8.30;;;;;;;3.87;69.20;101196.17;216263;1263;140794;-69
2024/01/30 17:31:28;;;;;;;12.30;7.30;;;;;;;3.83;69.01;101190.51;216826;1259;140594;-69
2024/01/30 17:36:32;;;;;;;10.70;6.40;;;;;;;3.81;69.10;101190.79;217704;1261;141082;-68
2024/01/30 17:41:36;;;;;;;12.00;7.30;;;;;;;3.78;69.10;101189.09;217164;1259;140059;-68
2024/01/30 17:46:40;;;;;;;13.10;7.70;;;;;;;3.79;69.37;101184.64;216424;1259;141498;-69
2024/01/30 17:51:44;;;;;;;11.90;7.20;;;;;;;3.79;69.29;101187.31;216181;1259;140454;-69
2024/01/30 17:56:48;;;;;;;13.10;8.90;;;;;;;3.78;69.11;101186.84;216345;1260;234153;-70
2024/01/30 18:01:52;;;;;;;18.60;8.70;;;;;;;3.78;69.12;101184.54;216701;1259;139949;-70
2024/01/30 18:06:56;;;;;;;13.40;8.20;;;;;;;3.78;69.24;101182.69;217815;1258;141030;-69
2024/01/30 18:12:00;;;;;;;12.00;7.70;;;;;;;3.76;69.31;101184.77;216831;1259;142602;-68
2024/01/30 18:17:05;;;;;;;13.70;7.30;;;;;;;3.71;69.23;101183.14;216516;1261;140144;-69
2024/01/30 18:22:09;;;;;;;15.80;8.20;;;;;;;3.67;69.24;101178.61;216927;1260;140359;-70
2024/01/30 18:27:13;;;;;;;8.90;6.00;;;;;;;3.62;69.34;101173.84;219678;1259;140458;-68
2024/01/30 18:32:17;;;;;;;13.30;7.30;;;;;;;3.58;69.34;101171.26;219530;1259;153920;-69
2024/01/30 18:37:22;;;;;;;13.10;7.10;;;;;;;3.57;69.27;101167.72;217256;1262;142283;-68
2024/01/30 18:42:27;;;;;;;16.20;8.10;;;;;;;3.52;69.32;101165.68;217231;1259;140485;-68
2024/01/30 18:47:31;;;;;;;11.40;7.30;;;;;;;3.49;69.57;101167.48;217870;1259;139856;-67
2024/01/30 18:52:36;;;;;;;19.20;8.20;;;;;;;3.47;69.62;101165.92;216503;1257;140175;-66
2024/01/30 18:57:40;;;;;;;8.90;5.80;;;;;;;3.44;69.67;101160.90;217347;1259;140094;-69
2024/01/30 19:02:44;;;;;;;16.40;8.60;;;;;;;3.39;69.64;101159.70;216707;1259;140325;-69
2024/01/30 19:07:49;;;;;;;16.40;7.50;;;;;;;3.33;69.66;101145.71;216255;1262;141559;-67
2024/01/30 19:12:53;;;;;;;10.90;7.70;;;;;;;3.26;69.83;101150.60;216967;1259;141379;-67
2024/01/30 19:17:59;;;;;;;18.70;9.80;;;;;;;3.21;69.88;101151.60;216534;1262;141359;-68
2024/01/30 19:23:05;;;;;;;16.20;8.30;;;;;;;3.17;69.97;101147.70;216735;1259;139893;-66
2024/01/30 19:28:11;;;;;;;19.60;7.90;;;;;;;3.12;69.94;101146.73;216974;1260;141505;-68
2024/01/30 19:33:16;;;;;;;13.40;8.20;;;;;;;3.09;70.14;101147.57;216330;1259;140920;-68
2024/01/30 19:38:20;;;;;;;18.20;10.80;;;;;;;3.04;70.24;101149.66;217244;1259;140612;-67
2024/01/30 19:43:25;;;;;;;14.10;8.60;;;;;;;3.02;70.38;101147.57;217699;1259;142461;-67
2024/01/30 19:48:29;;;;;;;17.10;7.20;;;;;;;2.98;70.33;101147.40;216918;1259;141843;-67
2024/01/30 19:53:38;;;;;;;12.60;7.90;;;;;;;2.95;70.57;101140.13;218050;1262;141657;-67
2024/01/30 19:58:43;;;;;;;13.40;7.70;;;;;;;2.94;70.39;101136.61;218468;1259;140191;-68
2024/01/30 20:03:47;;;;;;;14.40;7.80;;;;;;;2.90;70.45;101130.81;216469;1259;140155;-68
2024/01/30 20:08:51;;;;;;;13.50;6.80;;;;;;;2.87;70.69;101129.73;219635;1259;140344;-70
2024/01/30 20:13:56;;;;;;;15.50;8.90;;;;;;;2.83;70.70;101129.42;217028;1259;139996;-69
2024/01/30 20:19:01;;;;;;;22.10;7.60;;;;;;;2.81;70.89;101132.93;217406;1259;139767;-71
2024/01/30 20:24:08;;;;;;;16.30;8.50;;;;;;;2.80;70.99;101130.61;219187;1257;140775;-72
2024/01/30 20:29:13;;;;;;;12.90;8.20;;;;;;;2.77;70.92;101125.09;218721;1259;141461;-67
2024/01/30 20:34:18;;;;;;;16.60;9.20;;;;;;;2.75;70.99;101130.75;217708;1259;141572;-69
2024/01/30 20:39:25;;;;;;;14.60;9.10;;;;;;;2.75;71.06;101130.91;218105;1259;140147;-68
2024/01/30 20:44:30;;;;;;;17.00;7.20;;;;;;;2.73;71.22;101141.66;218265;1259;140763;-68
2024/01/30 20:49:35;;;;;;;15.30;8.20;;;;;;;2.70;71.21;101147.69;216583;1258;140097;-69
2024/01/30 20:54:40;;;;;;;14.50;9.10;;;;;;;2.69;71.29;101152.88;217975;1262;142317;-70
2024/01/30 20:59:44;;;;;;;21.10;9.20;;;;;;;2.65;71.38;101148.05;217621;1259;141331;-70
2024/01/30 21:04:48;;;;;;;17.20;9.80;;;;;;;2.60;71.48;101150.23;217206;1259;140824;-70
2024/01/30 21:09:53;;;;;;;15.60;9.60;;;;;;;2.55;71.43;101147.11;218475;1259;140453;-70
2024/01/30 21:14:59;;;;;;;12.90;6.70;;;;;;;2.49;71.90;101143.83;217205;1259;142836;-69
2024/01/30 21:20:04;;;;;;;16.30;8.60;;;;;;;2.45;71.72;101145.27;216754;1260;139804;-67
2024/01/30 21:25:09;;;;;;;15.50;8.90;;;;;;;2.43;71.99;101140.39;216786;1259;142437;-67
2024/01/30 21:30:15;;;;;;;25.50;11.50;;;;;;;2.40;72.35;101145.45;216496;1259;142503;-68
2024/01/30 21:35:19;;;;;;;20.10;10.10;;;;;;;2.40;72.24;101155.09;217793;1257;140704;-67
2024/01/30 21:40:24;;;;;;;20.30;10.40;;;;;;;2.40;72.36;101153.45;216918;1262;231588;-66
2024/01/30 21:45:28;;;;;;;19.20;11.10;;;;;;;2.38;72.36;101152.99;217260;1259;140331;-68
2024/01/30 21:50:32;;;;;;;22.10;11.20;;;;;;;2.34;72.44;101155.95;216965;1263;142355;-67
2024/01/30 21:55:37;;;;;;;18.20;11.00;;;;;;;2.31;72.67;101159.20;217403;1262;140858;-66
2024/01/30 22:00:42;;;;;;;20.50;11.50;;;;;;;2.27;72.76;101155.23;217826;1263;140905;-67
2024/01/30 22:05:46;;;;;;;8.20;6.30;;;;;;;2.24;72.92;101152.83;216564;1259;141243;-67
2024/01/30 22:10:50;;;;;;;21.10;11.00;;;;;;;2.21;72.77;101151.42;218592;1259;141861;-69
2024/01/30 22:15:54;;;;;;;20.40;8.90;;;;;;;2.14;73.02;101147.20;216453;1263;140636;-69
2024/01/30 22:20:58;;;;;;;20.20;13.40;;;;;;;2.07;73.15;101152.76;217604;1259;140678;-68
2024/01/30 22:26:03;;;;;;;21.50;10.60;;;;;;;2.06;73.25;101159.73;219599;1259;140322;-69
2024/01/30 22:31:07;;;;;;;25.40;9.90;;;;;;;2.04;73.69;101156.73;219095;1259;139971;-69
2024/01/30 22:36:16;;;;;;;20.60;10.30;;;;;;;2.05;73.56;101156.29;216785;1263;140629;-68
2024/01/30 22:41:24;;;;;;;17.70;9.70;;;;;;;2.05;73.33;101147.73;216639;1262;140683;-67
2024/01/30 22:46:29;;;;;;;23.00;11.30;;;;;;;2.05;73.91;101150.35;218211;1259;140442;-67
2024/01/30 22:51:33;;;;;;;17.30;12.10;;;;;;;2.06;73.72;101150.44;216559;1259;139930;-67
2024/01/30 22:56:38;;;;;;;25.20;11.50;;;;;;;2.07;73.96;101145.28;216546;1259;140231;-68
2024/01/30 23:01:43;;;;;;;22.20;10.30;;;;;;;2.06;74.34;101140.63;217097;1259;140132;-68
2024/01/30 23:06:47;;;;;;;27.10;11.80;;;;;;;2.04;74.44;101137.65;216830;1259;142195;-68